createdAt,value
2023-01-18T00:00:06.533Z,-5.47
2023-01-18T00:00:18.542Z,-5.47
2023-01-18T00:00:29.329Z,-5.47
2023-01-18T00:00:40.102Z,-5.45
2023-01-18T00:00:51.855Z,-5.47
2023-01-18T00:01:04.133Z,-5.49
2023-01-18T00:01:16.601Z,-5.47
2023-01-18T00:01:27.344Z,-5.47
2023-01-18T00:01:39.116Z,-5.47
2023-01-18T00:01:49.927Z,-5.47
2023-01-18T00:02:01.677Z,-5.49
2023-01-18T00:02:14.263Z,-5.49
2023-01-18T00:02:25.003Z,-5.49
2023-01-18T00:02:35.752Z,-5.51
2023-01-18T00:02:46.525Z,-5.49
2023-01-18T00:02:58.652Z,-5.49
2023-01-18T00:03:09.644Z,-5.49
2023-01-18T00:03:20.384Z,-5.49
2023-01-18T00:03:31.122Z,-5.51
2023-01-18T00:03:43.578Z,-5.47
2023-01-18T00:03:55.275Z,-5.49
2023-01-18T00:04:06.013Z,-5.49
2023-01-18T00:04:18.484Z,-5.49
2023-01-18T00:04:30.783Z,-5.49
2023-01-18T00:04:41.617Z,-5.47
2023-01-18T00:04:52.424Z,-5.47
2023-01-18T00:05:04.233Z,-5.47
2023-01-18T00:05:15.081Z,-5.47
2023-01-18T00:05:25.823Z,-5.49
2023-01-18T00:05:36.593Z,-5.47
2023-01-18T00:05:47.394Z,-5.47
2023-01-18T00:05:58.156Z,-5.49
2023-01-18T00:06:08.909Z,-5.49
2023-01-18T00:06:20.601Z,-5.47
2023-01-18T00:06:32.344Z,-5.47
2023-01-18T00:06:43.093Z,-5.49
2023-01-18T00:06:53.883Z,-5.47
2023-01-18T00:07:04.634Z,-5.51
2023-01-18T00:07:17.854Z,-5.51
2023-01-18T00:07:29.572Z,-5.49
2023-01-18T00:07:41.829Z,-5.51
2023-01-18T00:07:52.583Z,-5.51
2023-01-18T00:08:04.325Z,-5.51
2023-01-18T00:08:16.062Z,-5.52
2023-01-18T00:08:28.277Z,-5.52
2023-01-18T00:08:40.759Z,-5.52
2023-01-18T00:08:53.756Z,-5.52
2023-01-18T00:09:04.507Z,-5.54
2023-01-18T00:09:15.284Z,-5.54
2023-01-18T00:09:27.050Z,-5.54
2023-01-18T00:09:37.767Z,-5.55
2023-01-18T00:09:48.493Z,-5.54
2023-01-18T00:09:59.252Z,-5.55
2023-01-18T00:10:10.054Z,-5.54
2023-01-18T00:10:20.794Z,-5.56
2023-01-18T00:10:31.603Z,-5.55
2023-01-18T00:10:42.385Z,-5.55
2023-01-18T00:10:54.833Z,-5.55
2023-01-18T00:11:07.345Z,-5.55
2023-01-18T00:11:19.107Z,-5.56
2023-01-18T00:11:30.810Z,-5.55
2023-01-18T00:11:41.615Z,-5.56
2023-01-18T00:11:54.063Z,-5.55
2023-01-18T00:12:04.819Z,-5.56
2023-01-18T00:12:15.542Z,-5.55
2023-01-18T00:12:27.985Z,-5.56
2023-01-18T00:12:38.749Z,-5.54
2023-01-18T00:12:49.534Z,-5.55
2023-01-18T00:13:01.974Z,-5.56
2023-01-18T00:13:12.730Z,-5.55
2023-01-18T00:13:23.454Z,-5.55
2023-01-18T00:13:35.920Z,-5.55
2023-01-18T00:13:46.743Z,-5.55
2023-01-18T00:13:59.197Z,-5.55
2023-01-18T00:14:10.915Z,-5.54
2023-01-18T00:14:23.632Z,-5.55
2023-01-18T00:14:35.386Z,-5.55
2023-01-18T00:14:46.145Z,-5.54
2023-01-18T00:14:58.617Z,-5.54
2023-01-18T00:15:10.334Z,-5.55
2023-01-18T00:15:21.107Z,-5.54
2023-01-18T00:15:32.843Z,-5.54
2023-01-18T00:15:44.570Z,-5.52
2023-01-18T00:15:56.394Z,-5.54
2023-01-18T00:16:08.817Z,-5.54
2023-01-18T00:16:19.593Z,-5.52
2023-01-18T00:16:30.430Z,-5.52
2023-01-18T00:16:41.222Z,-5.52
2023-01-18T00:16:51.994Z,-5.51
2023-01-18T00:17:03.707Z,-5.51
2023-01-18T00:17:15.456Z,-5.52
2023-01-18T00:17:27.926Z,-5.51
2023-01-18T00:17:39.933Z,-5.51
2023-01-18T00:17:51.851Z,-5.51
2023-01-18T00:18:04.315Z,-5.52
2023-01-18T00:18:15.995Z,-5.52
2023-01-18T00:18:26.766Z,-5.52
2023-01-18T00:18:37.523Z,-5.51
2023-01-18T00:18:48.277Z,-5.52
2023-01-18T00:19:01.205Z,-5.52
2023-01-18T00:19:12.035Z,-5.52
2023-01-18T00:19:22.974Z,-5.52
2023-01-18T00:19:33.753Z,-5.54
2023-01-18T00:19:45.965Z,-5.52
2023-01-18T00:19:56.714Z,-5.54
2023-01-18T00:20:07.495Z,-5.54
2023-01-18T00:20:19.922Z,-5.52
2023-01-18T00:20:31.657Z,-5.54
2023-01-18T00:20:42.426Z,-5.54
2023-01-18T00:20:54.098Z,-5.54
2023-01-18T00:21:06.338Z,-5.54
2023-01-18T00:21:18.077Z,-5.54
2023-01-18T00:21:30.647Z,-5.54
2023-01-18T00:21:42.363Z,-5.52
2023-01-18T00:21:53.147Z,-5.54
2023-01-18T00:22:05.618Z,-5.52
2023-01-18T00:22:17.366Z,-5.52
2023-01-18T00:22:29.846Z,-5.52
2023-01-18T00:22:40.582Z,-5.51
2023-01-18T00:22:51.367Z,-5.51
2023-01-18T00:23:02.141Z,-5.49
2023-01-18T00:23:12.895Z,-5.51
2023-01-18T00:23:23.697Z,-5.49
2023-01-18T00:23:35.431Z,-5.51
2023-01-18T00:23:46.154Z,-5.51
2023-01-18T00:23:57.876Z,-5.51
2023-01-18T00:24:08.615Z,-5.51
2023-01-18T00:24:20.824Z,-5.51
2023-01-18T00:24:31.586Z,-5.49
2023-01-18T00:24:42.344Z,-5.51
2023-01-18T00:24:54.043Z,-5.49
2023-01-18T00:25:05.999Z,-5.51
2023-01-18T00:25:18.455Z,-5.49
2023-01-18T00:25:30.894Z,-5.49
2023-01-18T00:25:44.107Z,-5.51
2023-01-18T00:25:54.838Z,-5.51
2023-01-18T00:26:05.618Z,-5.51
2023-01-18T00:26:17.316Z,-5.49
2023-01-18T00:26:29.053Z,-5.49
2023-01-18T00:26:39.834Z,-5.52
2023-01-18T00:26:50.614Z,-5.49
2023-01-18T00:27:01.395Z,-5.49
2023-01-18T00:27:14.599Z,-5.49
2023-01-18T00:27:27.061Z,-5.49
2023-01-18T00:27:37.835Z,-5.51
2023-01-18T00:27:48.636Z,-5.47
2023-01-18T00:28:01.911Z,-5.51
2023-01-18T00:28:13.616Z,-5.49
2023-01-18T00:28:26.545Z,-5.52
2023-01-18T00:28:39.028Z,-5.51
2023-01-18T00:28:49.842Z,-5.51
2023-01-18T00:29:01.555Z,-5.51
2023-01-18T00:29:14.007Z,-5.52
2023-01-18T00:29:24.758Z,-5.52
2023-01-18T00:29:36.507Z,-5.52
2023-01-18T00:29:47.320Z,-5.52
2023-01-18T00:29:59.324Z,-5.52
2023-01-18T00:30:10.138Z,-5.52
2023-01-18T00:30:22.560Z,-5.54
2023-01-18T00:30:34.273Z,-5.54
2023-01-18T00:30:46.737Z,-5.54
2023-01-18T00:30:57.509Z,-5.54
2023-01-18T00:31:08.234Z,-5.55
2023-01-18T00:31:19.096Z,-5.55
2023-01-18T00:31:31.559Z,-5.54
2023-01-18T00:31:43.861Z,-5.55
2023-01-18T00:31:56.146Z,-5.55
2023-01-18T00:32:08.637Z,-5.55
2023-01-18T00:32:20.893Z,-5.55
2023-01-18T00:32:31.782Z,-5.56
2023-01-18T00:32:43.645Z,-5.56
2023-01-18T00:32:54.520Z,-5.56
2023-01-18T00:33:07.764Z,-5.58
2023-01-18T00:33:20.479Z,-5.58
2023-01-18T00:33:31.265Z,-5.58
2023-01-18T00:33:43.733Z,-5.58
2023-01-18T00:33:54.485Z,-5.59
2023-01-18T00:34:05.256Z,-5.59
2023-01-18T00:34:16.035Z,-5.61
2023-01-18T00:34:28.687Z,-5.59
2023-01-18T00:34:40.927Z,-5.61
2023-01-18T00:34:52.614Z,-5.62
2023-01-18T00:35:04.343Z,-5.61
2023-01-18T00:35:16.570Z,-5.62
2023-01-18T00:35:27.340Z,-5.63
2023-01-18T00:35:38.087Z,-5.62
2023-01-18T00:35:49.794Z,-5.63
2023-01-18T00:36:01.501Z,-5.63
2023-01-18T00:36:12.239Z,-5.63
2023-01-18T00:36:25.455Z,-5.63
2023-01-18T00:36:37.175Z,-5.63
2023-01-18T00:36:47.989Z,-5.62
2023-01-18T00:36:58.758Z,-5.63
2023-01-18T00:37:09.528Z,-5.63
2023-01-18T00:37:20.312Z,-5.63
2023-01-18T00:37:32.070Z,-5.62
2023-01-18T00:37:43.819Z,-5.63
2023-01-18T00:37:54.575Z,-5.63
2023-01-18T00:38:06.312Z,-5.63
2023-01-18T00:38:19.566Z,-5.63
2023-01-18T00:38:30.356Z,-5.63
2023-01-18T00:38:41.143Z,-5.65
2023-01-18T00:38:54.624Z,-5.63
2023-01-18T00:39:07.065Z,-5.65
2023-01-18T00:39:17.836Z,-5.65
2023-01-18T00:39:29.556Z,-5.65
2023-01-18T00:39:41.774Z,-5.65
2023-01-18T00:39:52.587Z,-5.65
2023-01-18T00:40:04.326Z,-5.65
2023-01-18T00:40:16.073Z,-5.67
2023-01-18T00:40:26.876Z,-5.67
2023-01-18T00:40:38.666Z,-5.69
2023-01-18T00:40:49.439Z,-5.67
2023-01-18T00:41:00.206Z,-5.69
2023-01-18T00:41:10.969Z,-5.69
2023-01-18T00:41:21.765Z,-5.70
2023-01-18T00:41:32.516Z,-5.70
2023-01-18T00:41:44.226Z,-5.70
2023-01-18T00:41:54.985Z,-5.70
2023-01-18T00:42:05.755Z,-5.73
2023-01-18T00:42:18.073Z,-5.73
2023-01-18T00:42:30.285Z,-5.73
2023-01-18T00:42:43.509Z,-5.72
2023-01-18T00:42:54.303Z,-5.73
2023-01-18T00:43:05.038Z,-5.73
2023-01-18T00:43:15.792Z,-5.73
2023-01-18T00:43:26.559Z,-5.76
2023-01-18T00:43:37.337Z,-5.74
2023-01-18T00:43:48.079Z,-5.74
2023-01-18T00:43:58.830Z,-5.74
2023-01-18T00:44:10.545Z,-5.74
2023-01-18T00:44:21.306Z,-5.74
2023-01-18T00:44:33.316Z,-5.73
2023-01-18T00:44:45.010Z,-5.74
2023-01-18T00:44:57.425Z,-5.74
2023-01-18T00:45:08.187Z,-5.74
2023-01-18T00:45:20.906Z,-5.73
2023-01-18T00:45:33.164Z,-5.74
2023-01-18T00:45:43.972Z,-5.74
2023-01-18T00:45:56.264Z,-5.76
2023-01-18T00:46:07.244Z,-5.76
2023-01-18T00:46:18.039Z,-5.74
2023-01-18T00:46:30.490Z,-5.74
2023-01-18T00:46:42.235Z,-5.74
2023-01-18T00:46:53.955Z,-5.74
2023-01-18T00:47:04.705Z,-5.73
2023-01-18T00:47:16.425Z,-5.76
2023-01-18T00:47:27.177Z,-5.76
2023-01-18T00:47:37.989Z,-5.74
2023-01-18T00:47:49.746Z,-5.77
2023-01-18T00:48:00.491Z,-5.76
2023-01-18T00:48:11.222Z,-5.76
2023-01-18T00:48:23.668Z,-5.76
2023-01-18T00:48:35.891Z,-5.77
2023-01-18T00:48:48.622Z,-5.77
2023-01-18T00:48:59.347Z,-5.77
2023-01-18T00:49:12.009Z,-5.79
2023-01-18T00:49:24.255Z,-5.79
2023-01-18T00:49:36.694Z,-5.80
2023-01-18T00:49:47.496Z,-5.79
2023-01-18T00:49:58.257Z,-5.79
2023-01-18T00:50:09.024Z,-5.79
2023-01-18T00:50:21.469Z,-5.80
2023-01-18T00:50:33.188Z,-5.82
2023-01-18T00:50:43.979Z,-5.80
2023-01-18T00:50:55.727Z,-5.80
2023-01-18T00:51:07.973Z,-5.82
2023-01-18T00:51:20.879Z,-5.82
2023-01-18T00:51:31.653Z,-5.83
2023-01-18T00:51:43.355Z,-5.82
2023-01-18T00:51:56.395Z,-5.83
2023-01-18T00:52:09.645Z,-5.83
2023-01-18T00:52:20.427Z,-5.83
2023-01-18T00:52:32.884Z,-5.84
2023-01-18T00:52:45.330Z,-5.84
2023-01-18T00:52:58.139Z,-5.83
2023-01-18T00:53:11.535Z,-5.84
2023-01-18T00:53:22.318Z,-5.83
2023-01-18T00:53:35.031Z,-5.83
2023-01-18T00:53:45.769Z,-5.84
2023-01-18T00:53:56.508Z,-5.84
2023-01-18T00:54:09.006Z,-5.84
2023-01-18T00:54:19.770Z,-5.87
2023-01-18T00:54:30.596Z,-5.87
2023-01-18T00:54:41.406Z,-5.87
2023-01-18T00:54:53.220Z,-5.83
2023-01-18T00:55:03.969Z,-5.84
2023-01-18T00:55:16.428Z,-5.84
2023-01-18T00:55:27.943Z,-5.84
2023-01-18T00:55:39.610Z,-5.87
2023-01-18T00:55:50.356Z,-5.88
2023-01-18T00:56:03.069Z,-5.87
2023-01-18T00:56:15.292Z,-5.88
2023-01-18T00:56:26.030Z,-5.87
2023-01-18T00:56:37.750Z,-5.88
2023-01-18T00:56:49.706Z,-5.88
2023-01-18T00:57:02.141Z,-5.87
2023-01-18T00:57:14.408Z,-5.88
2023-01-18T00:57:25.179Z,-5.90
2023-01-18T00:57:35.926Z,-5.90
2023-01-18T00:57:47.648Z,-5.88
2023-01-18T00:57:58.407Z,-5.90
2023-01-18T00:58:09.228Z,-5.91
2023-01-18T00:58:19.965Z,-5.91
2023-01-18T00:58:30.697Z,-5.90
2023-01-18T00:58:42.428Z,-5.91
2023-01-18T00:58:54.868Z,-5.90
2023-01-18T00:59:07.148Z,-5.91
2023-01-18T00:59:18.849Z,-5.92
2023-01-18T00:59:32.068Z,-5.92
2023-01-18T00:59:44.333Z,-5.94
2023-01-18T00:59:56.538Z,-5.92
2023-01-18T01:00:08.307Z,-5.92
2023-01-18T01:00:19.150Z,-5.91
2023-01-18T01:00:30.898Z,-5.92
2023-01-18T01:00:43.473Z,-5.92
2023-01-18T01:00:55.319Z,-5.92
2023-01-18T01:01:08.072Z,-5.95
2023-01-18T01:01:20.565Z,-5.92
2023-01-18T01:01:31.515Z,-5.94
2023-01-18T01:01:42.469Z,-5.94
2023-01-18T01:01:54.456Z,-5.94
2023-01-18T01:02:06.487Z,-5.92
2023-01-18T01:02:17.416Z,-5.94
2023-01-18T01:02:28.260Z,-5.94
2023-01-18T01:02:40.116Z,-5.95
2023-01-18T01:02:51.007Z,-5.94
2023-01-18T01:03:04.065Z,-5.95
2023-01-18T01:03:17.369Z,-5.95
2023-01-18T01:03:28.183Z,-5.94
2023-01-18T01:03:38.946Z,-5.95
2023-01-18T01:03:51.767Z,-5.94
2023-01-18T01:04:02.722Z,-5.95
2023-01-18T01:04:15.229Z,-5.95
2023-01-18T01:04:26.780Z,-5.95
2023-01-18T01:04:38.538Z,-5.94
2023-01-18T01:04:51.358Z,-5.95
2023-01-18T01:05:02.115Z,-5.95
2023-01-18T01:05:14.369Z,-5.94
2023-01-18T01:05:26.151Z,-5.94
2023-01-18T01:05:36.937Z,-5.94
2023-01-18T01:05:47.715Z,-5.94
2023-01-18T01:05:58.480Z,-5.94
2023-01-18T01:06:09.401Z,-5.92
2023-01-18T01:06:20.230Z,-5.92
2023-01-18T01:06:32.723Z,-5.92
2023-01-18T01:06:44.876Z,-5.92
2023-01-18T01:06:55.861Z,-5.91
2023-01-18T01:07:08.347Z,-5.90
2023-01-18T01:07:19.173Z,-5.90
2023-01-18T01:07:29.946Z,-5.88
2023-01-18T01:07:40.748Z,-5.90
2023-01-18T01:07:51.479Z,-5.88
2023-01-18T01:08:03.932Z,-5.87
2023-01-18T01:08:14.688Z,-5.84
2023-01-18T01:08:26.435Z,-5.83
2023-01-18T01:08:37.236Z,-5.82
2023-01-18T01:08:48.004Z,-5.82
2023-01-18T01:08:58.768Z,-5.80
2023-01-18T01:09:09.533Z,-5.79
2023-01-18T01:09:20.319Z,-5.79
2023-01-18T01:09:32.755Z,-5.77
2023-01-18T01:09:43.539Z,-5.76
2023-01-18T01:09:54.302Z,-5.74
2023-01-18T01:10:06.038Z,-5.73
2023-01-18T01:10:17.808Z,-5.74
2023-01-18T01:10:29.547Z,-5.73
2023-01-18T01:10:40.298Z,-5.72
2023-01-18T01:10:51.119Z,-5.72
2023-01-18T01:11:01.887Z,-5.70
2023-01-18T01:11:14.322Z,-5.70
2023-01-18T01:11:25.077Z,-5.72
2023-01-18T01:11:35.853Z,-5.70
2023-01-18T01:11:46.628Z,-5.69
2023-01-18T01:11:57.397Z,-5.69
2023-01-18T01:12:08.239Z,-5.70
2023-01-18T01:12:19.960Z,-5.69
2023-01-18T01:12:32.239Z,-5.69
2023-01-18T01:12:42.988Z,-5.69
2023-01-18T01:12:53.768Z,-5.67
2023-01-18T01:13:04.557Z,-5.67
2023-01-18T01:13:15.338Z,-5.67
2023-01-18T01:13:27.079Z,-5.65
2023-01-18T01:13:37.866Z,-5.67
2023-01-18T01:13:48.594Z,-5.65
2023-01-18T01:14:00.200Z,-5.63
2023-01-18T01:14:10.942Z,-5.67
2023-01-18T01:14:21.700Z,-5.62
2023-01-18T01:14:34.204Z,-5.63
2023-01-18T01:14:47.332Z,-5.65
2023-01-18T01:14:58.130Z,-5.65
2023-01-18T01:15:08.950Z,-5.65
2023-01-18T01:15:19.728Z,-5.63
2023-01-18T01:15:31.969Z,-5.65
2023-01-18T01:15:42.758Z,-5.65
2023-01-18T01:15:53.528Z,-5.65
2023-01-18T01:16:05.263Z,-5.65
2023-01-18T01:16:17.057Z,-5.65
2023-01-18T01:16:28.791Z,-5.65
2023-01-18T01:16:39.590Z,-5.65
2023-01-18T01:16:50.417Z,-5.67
2023-01-18T01:17:01.168Z,-5.67
2023-01-18T01:17:13.619Z,-5.65
2023-01-18T01:17:24.368Z,-5.63
2023-01-18T01:17:36.078Z,-5.67
2023-01-18T01:17:46.818Z,-5.67
2023-01-18T01:17:57.559Z,-5.67
2023-01-18T01:18:09.256Z,-5.67
2023-01-18T01:18:20.057Z,-5.69
2023-01-18T01:18:32.576Z,-5.67
2023-01-18T01:18:43.342Z,-5.67
2023-01-18T01:18:54.087Z,-5.69
2023-01-18T01:19:04.865Z,-5.67
2023-01-18T01:19:16.879Z,-5.67
2023-01-18T01:19:27.650Z,-5.65
2023-01-18T01:19:38.451Z,-5.67
2023-01-18T01:19:50.909Z,-5.65
2023-01-18T01:20:01.681Z,-5.65
2023-01-18T01:20:12.441Z,-5.65
2023-01-18T01:20:23.185Z,-5.65
2023-01-18T01:20:35.655Z,-5.65
2023-01-18T01:20:48.842Z,-5.67
2023-01-18T01:21:00.549Z,-5.65
2023-01-18T01:21:12.272Z,-5.65
2023-01-18T01:21:24.727Z,-5.65
2023-01-18T01:21:36.490Z,-5.65
2023-01-18T01:21:47.275Z,-5.65
2023-01-18T01:21:59.748Z,-5.63
2023-01-18T01:22:12.182Z,-5.63
2023-01-18T01:22:24.660Z,-5.65
2023-01-18T01:22:37.369Z,-5.63
2023-01-18T01:22:50.993Z,-5.63
2023-01-18T01:23:04.194Z,-5.67
2023-01-18T01:23:14.935Z,-5.65
2023-01-18T01:23:26.649Z,-5.65
2023-01-18T01:23:39.650Z,-5.67
2023-01-18T01:23:53.794Z,-5.67
2023-01-18T01:24:04.549Z,-5.69
2023-01-18T01:24:16.793Z,-5.69
2023-01-18T01:24:27.520Z,-5.70
2023-01-18T01:24:39.957Z,-5.69
2023-01-18T01:24:50.728Z,-5.70
2023-01-18T01:25:01.554Z,-5.73
2023-01-18T01:25:14.780Z,-5.72
2023-01-18T01:25:28.901Z,-5.73
2023-01-18T01:25:40.612Z,-5.72
2023-01-18T01:25:53.038Z,-5.73
2023-01-18T01:26:03.822Z,-5.74
2023-01-18T01:26:16.296Z,-5.73
2023-01-18T01:26:27.105Z,-5.74
2023-01-18T01:26:38.828Z,-5.73
2023-01-18T01:26:49.563Z,-5.73
2023-01-18T01:27:01.299Z,-5.73
2023-01-18T01:27:13.037Z,-5.73
2023-01-18T01:27:25.463Z,-5.73
2023-01-18T01:27:38.666Z,-5.72
2023-01-18T01:27:51.159Z,-5.72
2023-01-18T01:28:01.933Z,-5.73
2023-01-18T01:28:14.392Z,-5.72
2023-01-18T01:28:25.151Z,-5.72
2023-01-18T01:28:35.890Z,-5.72
2023-01-18T01:28:46.671Z,-5.72
2023-01-18T01:28:57.422Z,-5.72
2023-01-18T01:29:08.160Z,-5.70
2023-01-18T01:29:20.599Z,-5.70
2023-01-18T01:29:31.365Z,-5.72
2023-01-18T01:29:42.146Z,-5.70
2023-01-18T01:29:52.981Z,-5.72
2023-01-18T01:30:04.747Z,-5.70
2023-01-18T01:30:15.533Z,-5.72
2023-01-18T01:30:27.307Z,-5.72
2023-01-18T01:30:39.011Z,-5.72
2023-01-18T01:30:51.047Z,-5.72
2023-01-18T01:31:02.836Z,-5.72
2023-01-18T01:31:13.603Z,-5.72
2023-01-18T01:31:24.348Z,-5.73
2023-01-18T01:31:37.590Z,-5.72
2023-01-18T01:31:48.382Z,-5.72
2023-01-18T01:31:59.181Z,-5.72
2023-01-18T01:32:11.952Z,-5.72
2023-01-18T01:32:22.740Z,-5.73
2023-01-18T01:32:34.944Z,-5.73
2023-01-18T01:32:45.727Z,-5.72
2023-01-18T01:32:56.771Z,-5.73
2023-01-18T01:33:08.677Z,-5.74
2023-01-18T01:33:19.512Z,-5.74
2023-01-18T01:33:30.250Z,-5.73
2023-01-18T01:33:41.992Z,-5.74
2023-01-18T01:33:52.738Z,-5.73
2023-01-18T01:34:03.476Z,-5.74
2023-01-18T01:34:15.450Z,-5.73
2023-01-18T01:34:27.208Z,-5.73
2023-01-18T01:34:38.029Z,-5.72
2023-01-18T01:34:48.813Z,-5.72
2023-01-18T01:34:59.568Z,-5.73
2023-01-18T01:35:10.310Z,-5.70
2023-01-18T01:35:21.090Z,-5.72
2023-01-18T01:35:33.303Z,-5.69
2023-01-18T01:35:45.249Z,-5.70
2023-01-18T01:35:56.017Z,-5.69
2023-01-18T01:36:08.314Z,-5.69
2023-01-18T01:36:19.093Z,-5.69
2023-01-18T01:36:31.570Z,-5.69
2023-01-18T01:36:43.271Z,-5.65
2023-01-18T01:36:55.010Z,-5.69
2023-01-18T01:37:07.229Z,-5.67
2023-01-18T01:37:17.989Z,-5.67
2023-01-18T01:37:29.734Z,-5.67
2023-01-18T01:37:40.479Z,-5.69
2023-01-18T01:37:52.682Z,-5.70
2023-01-18T01:38:03.435Z,-5.70
2023-01-18T01:38:14.210Z,-5.70
2023-01-18T01:38:26.676Z,-5.70
2023-01-18T01:38:38.410Z,-5.72
2023-01-18T01:38:49.162Z,-5.72
2023-01-18T01:38:59.950Z,-5.72
2023-01-18T01:39:10.684Z,-5.72
2023-01-18T01:39:22.909Z,-5.73
2023-01-18T01:39:33.694Z,-5.73
2023-01-18T01:39:45.410Z,-5.74
2023-01-18T01:39:58.350Z,-5.74
2023-01-18T01:40:09.101Z,-5.74
2023-01-18T01:40:20.830Z,-5.74
2023-01-18T01:40:32.527Z,-5.74
2023-01-18T01:40:43.287Z,-5.76
2023-01-18T01:40:54.009Z,-5.76
2023-01-18T01:41:04.800Z,-5.77
2023-01-18T01:41:15.567Z,-5.76
2023-01-18T01:41:27.069Z,-5.77
2023-01-18T01:41:37.809Z,-5.77
2023-01-18T01:41:50.261Z,-5.79
2023-01-18T01:42:01.023Z,-5.77
2023-01-18T01:42:11.757Z,-5.77
2023-01-18T01:42:22.532Z,-5.77
2023-01-18T01:42:34.287Z,-5.79
2023-01-18T01:42:45.053Z,-5.77
2023-01-18T01:42:57.172Z,-5.77
2023-01-18T01:43:08.130Z,-5.79
2023-01-18T01:43:18.910Z,-5.79
2023-01-18T01:43:31.382Z,-5.79
2023-01-18T01:43:42.421Z,-5.79
2023-01-18T01:43:54.868Z,-5.79
2023-01-18T01:44:06.581Z,-5.79
2023-01-18T01:44:19.062Z,-5.79
2023-01-18T01:44:31.511Z,-5.79
2023-01-18T01:44:43.259Z,-5.79
2023-01-18T01:44:56.460Z,-5.80
2023-01-18T01:45:07.229Z,-5.80
2023-01-18T01:45:19.679Z,-5.79
2023-01-18T01:45:32.682Z,-5.80
2023-01-18T01:45:44.413Z,-5.79
2023-01-18T01:45:57.668Z,-5.80
2023-01-18T01:46:08.481Z,-5.80
2023-01-18T01:46:20.743Z,-5.79
2023-01-18T01:46:33.680Z,-5.80
2023-01-18T01:46:45.958Z,-5.82
2023-01-18T01:46:56.787Z,-5.80
2023-01-18T01:47:08.509Z,-5.80
2023-01-18T01:47:19.274Z,-5.82
2023-01-18T01:47:30.011Z,-5.82
2023-01-18T01:47:40.765Z,-5.83
2023-01-18T01:47:53.241Z,-5.84
2023-01-18T01:48:04.961Z,-5.84
2023-01-18T01:48:15.709Z,-5.84
2023-01-18T01:48:26.492Z,-5.84
2023-01-18T01:48:38.965Z,-5.84
2023-01-18T01:48:49.734Z,-5.88
2023-01-18T01:49:00.501Z,-5.87
2023-01-18T01:49:11.277Z,-5.88
2023-01-18T01:49:24.013Z,-5.88
2023-01-18T01:49:35.694Z,-5.90
2023-01-18T01:49:47.428Z,-5.91
2023-01-18T01:50:00.630Z,-5.90
2023-01-18T01:50:11.405Z,-5.90
2023-01-18T01:50:23.860Z,-5.91
2023-01-18T01:50:34.593Z,-5.92
2023-01-18T01:50:45.376Z,-5.92
2023-01-18T01:50:56.111Z,-5.94
2023-01-18T01:51:06.854Z,-5.92
2023-01-18T01:51:17.630Z,-5.94
2023-01-18T01:51:29.410Z,-5.94
2023-01-18T01:51:41.165Z,-5.95
2023-01-18T01:51:51.928Z,-5.95
2023-01-18T01:52:02.694Z,-5.95
2023-01-18T01:52:13.444Z,-5.97
2023-01-18T01:52:24.238Z,-5.98
2023-01-18T01:52:35.968Z,-6.00
2023-01-18T01:52:47.691Z,-5.98
2023-01-18T01:52:58.671Z,-6.00
2023-01-18T01:53:09.545Z,-6.01
2023-01-18T01:53:20.581Z,-6.01
2023-01-18T01:53:32.546Z,-6.02
2023-01-18T01:53:43.271Z,-6.01
2023-01-18T01:53:54.272Z,-6.02
2023-01-18T01:54:05.058Z,-6.05
2023-01-18T01:54:15.810Z,-6.05
2023-01-18T01:54:28.055Z,-6.05
2023-01-18T01:54:38.814Z,-6.06
2023-01-18T01:54:49.551Z,-6.06
2023-01-18T01:55:01.263Z,-6.08
2023-01-18T01:55:12.993Z,-6.08
2023-01-18T01:55:23.749Z,-6.08
2023-01-18T01:55:34.487Z,-6.09
2023-01-18T01:55:45.256Z,-6.09
2023-01-18T01:55:56.023Z,-6.11
2023-01-18T01:56:07.741Z,-6.09
2023-01-18T01:56:19.510Z,-6.11
2023-01-18T01:56:30.281Z,-6.09
2023-01-18T01:56:41.071Z,-6.11
2023-01-18T01:56:53.510Z,-6.11
2023-01-18T01:57:05.251Z,-6.09
2023-01-18T01:57:17.693Z,-6.11
2023-01-18T01:57:28.461Z,-6.11
2023-01-18T01:57:39.283Z,-6.11
2023-01-18T01:57:50.038Z,-6.11
2023-01-18T01:58:00.805Z,-6.09
2023-01-18T01:58:11.563Z,-6.11
2023-01-18T01:58:23.261Z,-6.11
2023-01-18T01:58:34.061Z,-6.09
2023-01-18T01:58:44.791Z,-6.09
2023-01-18T01:58:55.633Z,-6.11
2023-01-18T01:59:07.414Z,-6.11
2023-01-18T01:59:18.171Z,-6.09
2023-01-18T01:59:29.892Z,-6.11
2023-01-18T01:59:40.653Z,-6.11
2023-01-18T01:59:51.421Z,-6.11
2023-01-18T02:00:02.226Z,-6.12
2023-01-18T02:00:12.962Z,-6.12
2023-01-18T02:00:23.784Z,-6.12
2023-01-18T02:00:34.536Z,-6.12
2023-01-18T02:00:45.371Z,-6.12
2023-01-18T02:00:56.195Z,-6.12
2023-01-18T02:01:10.058Z,-6.12
2023-01-18T02:01:22.426Z,-6.13
2023-01-18T02:01:33.296Z,-6.13
2023-01-18T02:01:44.170Z,-6.13
2023-01-18T02:01:55.102Z,-6.13
2023-01-18T02:02:06.076Z,-6.13
2023-01-18T02:02:16.950Z,-6.12
2023-01-18T02:02:30.086Z,-6.15
2023-01-18T02:02:40.944Z,-6.15
2023-01-18T02:02:52.760Z,-6.16
2023-01-18T02:03:05.231Z,-6.16
2023-01-18T02:03:18.467Z,-6.15
2023-01-18T02:03:29.214Z,-6.16
2023-01-18T02:03:41.686Z,-6.15
2023-01-18T02:03:53.401Z,-6.16
2023-01-18T02:04:04.189Z,-6.16
2023-01-18T02:04:16.663Z,-6.16
2023-01-18T02:04:30.641Z,-6.18
2023-01-18T02:04:41.405Z,-6.19
2023-01-18T02:04:52.161Z,-6.19
2023-01-18T02:05:03.881Z,-6.19
2023-01-18T02:05:17.083Z,-6.19
2023-01-18T02:05:29.534Z,-6.21
2023-01-18T02:05:42.046Z,-6.19
2023-01-18T02:05:52.771Z,-6.21
2023-01-18T02:06:05.531Z,-6.21
2023-01-18T02:06:16.295Z,-6.21
2023-01-18T02:06:27.046Z,-6.21
2023-01-18T02:06:38.770Z,-6.23
2023-01-18T02:06:51.016Z,-6.23
2023-01-18T02:07:02.762Z,-6.21
2023-01-18T02:07:15.474Z,-6.23
2023-01-18T02:07:27.792Z,-6.23
2023-01-18T02:07:40.257Z,-6.21
2023-01-18T02:07:52.713Z,-6.21
2023-01-18T02:08:05.176Z,-6.21
2023-01-18T02:08:17.392Z,-6.19
2023-01-18T02:08:28.176Z,-6.21
2023-01-18T02:08:38.952Z,-6.19
2023-01-18T02:08:49.702Z,-6.18
2023-01-18T02:09:02.151Z,-6.19
2023-01-18T02:09:13.835Z,-6.19
2023-01-18T02:09:24.581Z,-6.18
2023-01-18T02:09:36.879Z,-6.16
2023-01-18T02:09:47.655Z,-6.15
2023-01-18T02:09:58.392Z,-6.15
2023-01-18T02:10:09.189Z,-6.13
2023-01-18T02:10:20.902Z,-6.13
2023-01-18T02:10:31.701Z,-6.15
2023-01-18T02:10:43.920Z,-6.12
2023-01-18T02:10:54.687Z,-6.13
2023-01-18T02:11:06.403Z,-6.12
2023-01-18T02:11:17.150Z,-6.12
2023-01-18T02:11:27.902Z,-6.12
2023-01-18T02:11:38.717Z,-6.12
2023-01-18T02:11:51.152Z,-6.11
2023-01-18T02:12:02.855Z,-6.11
2023-01-18T02:12:16.053Z,-6.11
2023-01-18T02:12:27.783Z,-6.11
2023-01-18T02:12:38.534Z,-6.11
2023-01-18T02:12:50.992Z,-6.11
2023-01-18T02:13:01.787Z,-6.08
2023-01-18T02:13:12.533Z,-6.08
2023-01-18T02:13:23.303Z,-6.11
2023-01-18T02:13:35.105Z,-6.08
2023-01-18T02:13:45.859Z,-6.09
2023-01-18T02:13:57.611Z,-6.08
2023-01-18T02:14:08.395Z,-6.08
2023-01-18T02:14:19.173Z,-6.06
2023-01-18T02:14:31.636Z,-6.06
2023-01-18T02:14:42.433Z,-6.06
2023-01-18T02:14:54.200Z,-6.06
2023-01-18T02:15:04.974Z,-6.06
2023-01-18T02:15:18.570Z,-6.05
2023-01-18T02:15:31.579Z,-6.05
2023-01-18T02:15:42.382Z,-6.02
2023-01-18T02:15:54.864Z,-6.01
2023-01-18T02:16:05.646Z,-6.01
2023-01-18T02:16:16.392Z,-6.01
2023-01-18T02:16:27.203Z,-6.02
2023-01-18T02:16:37.989Z,-6.01
2023-01-18T02:16:49.762Z,-6.01
2023-01-18T02:17:00.565Z,-6.01
2023-01-18T02:17:11.331Z,-6.01
2023-01-18T02:17:23.107Z,-6.02
2023-01-18T02:17:35.055Z,-6.02
2023-01-18T02:17:45.823Z,-6.02
2023-01-18T02:17:56.585Z,-6.05
2023-01-18T02:18:07.366Z,-6.01
2023-01-18T02:18:18.120Z,-6.02
2023-01-18T02:18:29.951Z,-6.02
2023-01-18T02:18:40.753Z,-6.05
2023-01-18T02:18:52.470Z,-6.06
2023-01-18T02:19:04.943Z,-6.06
2023-01-18T02:19:15.786Z,-6.08
2023-01-18T02:19:27.492Z,-6.08
2023-01-18T02:19:38.285Z,-6.08
2023-01-18T02:19:49.057Z,-6.09
2023-01-18T02:20:01.282Z,-6.08
2023-01-18T02:20:12.023Z,-6.09
2023-01-18T02:20:24.431Z,-6.09
2023-01-18T02:20:35.236Z,-6.09
2023-01-18T02:20:47.664Z,-6.09
2023-01-18T02:20:59.397Z,-6.09
2023-01-18T02:21:10.194Z,-6.09
2023-01-18T02:21:21.932Z,-6.11
2023-01-18T02:21:32.674Z,-6.09
2023-01-18T02:21:43.435Z,-6.11
2023-01-18T02:21:55.168Z,-6.09
2023-01-18T02:22:06.884Z,-6.09
2023-01-18T02:22:17.664Z,-6.08
2023-01-18T02:22:28.395Z,-6.08
2023-01-18T02:22:40.143Z,-6.08
2023-01-18T02:22:51.894Z,-6.08
2023-01-18T02:23:02.615Z,-6.08
2023-01-18T02:23:13.392Z,-6.06
2023-01-18T02:23:24.175Z,-6.06
2023-01-18T02:23:37.338Z,-6.05
2023-01-18T02:23:49.064Z,-6.06
2023-01-18T02:23:59.813Z,-6.06
2023-01-18T02:24:10.589Z,-6.05
2023-01-18T02:24:23.007Z,-6.05
2023-01-18T02:24:33.752Z,-6.02
2023-01-18T02:24:46.230Z,-6.05
2023-01-18T02:24:58.920Z,-6.02
2023-01-18T02:25:12.259Z,-6.02
2023-01-18T02:25:23.967Z,-6.02
2023-01-18T02:25:34.763Z,-6.01
2023-01-18T02:25:45.543Z,-6.02
2023-01-18T02:25:56.348Z,-6.01
2023-01-18T02:26:08.309Z,-6.01
2023-01-18T02:26:21.432Z,-6.01
2023-01-18T02:26:32.191Z,-5.98
2023-01-18T02:26:43.932Z,-5.98
2023-01-18T02:26:54.713Z,-5.98
2023-01-18T02:27:07.162Z,-6.00
2023-01-18T02:27:19.083Z,-5.98
2023-01-18T02:27:29.836Z,-5.98
2023-01-18T02:27:40.602Z,-5.98
2023-01-18T02:27:52.344Z,-5.97
2023-01-18T02:28:04.084Z,-5.97